sensor_id;sensor_type;location;lat;lon;timestamp;pressure;altitude;pressure_sealevel;temperature;humidity
28626;BME280;18905;42.668;23.364;2023-06-10T00:01:47;94701.50;;;21.95;100.00
28626;BME280;18905;42.668;23.364;2023-06-10T00:04:14;94709.38;;;21.65;100.00
28626;BME280;18905;42.668;23.364;2023-06-10T00:06:40;94715.75;;;21.23;100.00
28626;BME280;18905;42.668;23.364;2023-06-10T00:09:06;94694.19;;;20.97;100.00
28626;BME280;18905;42.668;23.364;2023-06-10T00:11:35;94718.09;;;21.14;100.00
28626;BME280;18905;42.668;23.364;2023-06-10T00:14:01;94690.59;;;20.61;100.00
28626;BME280;18905;42.668;23.364;2023-06-10T00:16:26;94719.16;;;20.39;100.00
28626;BME280;18905;42.668;23.364;2023-06-10T00:18:52;94726.50;;;20.14;100.00
28626;BME280;18905;42.668;23.364;2023-06-10T00:21:17;94714.28;;;19.98;100.00
28626;BME280;18905;42.668;23.364;2023-06-10T00:23:44;94712.22;;;19.77;100.00
28626;BME280;18905;42.668;23.364;2023-06-10T00:26:09;94705.44;;;19.50;100.00
28626;BME280;18905;42.668;23.364;2023-06-10T00:28:35;94722.91;;;20.00;100.00
28626;BME280;18905;42.668;23.364;2023-06-10T00:31:01;94713.97;;;20.13;100.00
28626;BME280;18905;42.668;23.364;2023-06-10T00:33:26;94722.88;;;19.89;100.00
28626;BME280;18905;42.668;23.364;2023-06-10T00:35:52;94721.63;;;19.76;100.00
28626;BME280;18905;42.668;23.364;2023-06-10T00:38:17;94729.47;;;21.09;100.00
28626;BME280;18905;42.668;23.364;2023-06-10T00:40:42;94705.13;;;21.29;100.00
28626;BME280;18905;42.668;23.364;2023-06-10T00:43:08;94726.72;;;21.23;100.00
28626;BME280;18905;42.668;23.364;2023-06-10T00:45:33;94709.44;;;21.47;100.00
28626;BME280;18905;42.668;23.364;2023-06-10T00:48:00;94703.22;;;21.12;100.00
28626;BME280;18905;42.668;23.364;2023-06-10T00:50:26;94706.31;;;21.28;100.00
28626;BME280;18905;42.668;23.364;2023-06-10T00:52:53;94700.44;;;20.91;100.00
28626;BME280;18905;42.668;23.364;2023-06-10T00:55:20;94712.53;;;20.47;100.00
28626;BME280;18905;42.668;23.364;2023-06-10T00:57:46;94717.22;;;20.40;100.00
28626;BME280;18905;42.668;23.364;2023-06-10T01:00:14;94716.88;;;20.76;100.00
28626;BME280;18905;42.668;23.364;2023-06-10T01:02:40;94701.56;;;20.68;100.00
28626;BME280;18905;42.668;23.364;2023-06-10T01:05:06;94713.38;;;21.11;100.00
28626;BME280;18905;42.668;23.364;2023-06-10T01:08:01;94718.88;;;21.22;100.00
28626;BME280;18905;42.668;23.364;2023-06-10T01:10:41;94732.22;;;21.27;100.00
28626;BME280;18905;42.668;23.364;2023-06-10T01:13:11;94721.63;;;21.15;100.00
28626;BME280;18905;42.668;23.364;2023-06-10T01:15:39;94712.56;;;21.70;100.00
28626;BME280;18905;42.668;23.364;2023-06-10T01:18:09;94705.84;;;21.89;100.00
28626;BME280;18905;42.668;23.364;2023-06-10T01:20:37;94719.22;;;21.80;100.00
28626;BME280;18905;42.668;23.364;2023-06-10T01:23:06;94705.50;;;21.45;100.00
28626;BME280;18905;42.668;23.364;2023-06-10T01:25:33;94729.81;;;21.43;100.00
28626;BME280;18905;42.668;23.364;2023-06-10T01:28:12;94731.41;;;21.12;100.00
28626;BME280;18905;42.668;23.364;2023-06-10T01:33:31;94729.72;;;20.37;100.00
28626;BME280;18905;42.668;23.364;2023-06-10T01:35:59;94716.72;;;20.13;100.00
28626;BME280;18905;42.668;23.364;2023-06-10T01:38:27;94727.97;;;19.98;100.00
28626;BME280;18905;42.668;23.364;2023-06-10T01:40:55;94726.78;;;19.85;100.00
28626;BME280;18905;42.668;23.364;2023-06-10T01:43:21;94727.22;;;20.01;100.00
28626;BME280;18905;42.668;23.364;2023-06-10T01:45:46;94725.41;;;20.36;100.00
28626;BME280;18905;42.668;23.364;2023-06-10T01:48:12;94702.38;;;20.79;100.00
28626;BME280;18905;42.668;23.364;2023-06-10T01:50:37;94724.38;;;21.22;100.00
28626;BME280;18905;42.668;23.364;2023-06-10T01:53:03;94706.28;;;20.75;100.00
28626;BME280;18905;42.668;23.364;2023-06-10T01:55:29;94716.13;;;21.01;100.00
28626;BME280;18905;42.668;23.364;2023-06-10T01:57:54;94677.72;;;21.08;100.00
28626;BME280;18905;42.668;23.364;2023-06-10T02:00:20;94718.06;;;20.89;100.00
28626;BME280;18905;42.668;23.364;2023-06-10T02:02:45;94682.00;;;20.66;100.00
28626;BME280;18905;42.668;23.364;2023-06-10T02:05:11;94694.97;;;21.12;100.00
28626;BME280;18905;42.668;23.364;2023-06-10T02:07:36;94705.16;;;21.18;100.00
28626;BME280;18905;42.668;23.364;2023-06-10T02:10:03;94703.19;;;21.05;100.00
28626;BME280;18905;42.668;23.364;2023-06-10T02:12:29;94709.81;;;20.68;100.00
28626;BME280;18905;42.668;23.364;2023-06-10T02:14:54;94706.19;;;20.26;100.00
28626;BME280;18905;42.668;23.364;2023-06-10T02:17:20;94700.63;;;20.05;100.00
28626;BME280;18905;42.668;23.364;2023-06-10T02:19:45;94706.97;;;20.19;100.00
28626;BME280;18905;42.668;23.364;2023-06-10T02:22:21;94701.97;;;20.74;100.00
28626;BME280;18905;42.668;23.364;2023-06-10T02:24:46;94688.69;;;20.97;100.00
28626;BME280;18905;42.668;23.364;2023-06-10T02:27:12;94687.88;;;21.28;100.00
28626;BME280;18905;42.668;23.364;2023-06-10T02:29:37;94697.69;;;21.29;100.00
28626;BME280;18905;42.668;23.364;2023-06-10T02:32:03;94679.66;;;21.25;100.00
28626;BME280;18905;42.668;23.364;2023-06-10T02:34:28;94672.59;;;21.10;100.00
28626;BME280;18905;42.668;23.364;2023-06-10T02:36:54;94675.31;;;20.57;100.00
28626;BME280;18905;42.668;23.364;2023-06-10T02:39:19;94690.19;;;21.58;100.00
28626;BME280;18905;42.668;23.364;2023-06-10T02:41:45;94677.19;;;21.83;100.00
28626;BME280;18905;42.668;23.364;2023-06-10T02:44:11;94656.81;;;21.73;100.00
28626;BME280;18905;42.668;23.364;2023-06-10T02:46:36;94658.47;;;21.22;100.00
28626;BME280;18905;42.668;23.364;2023-06-10T02:49:01;94667.53;;;20.98;100.00
28626;BME280;18905;42.668;23.364;2023-06-10T02:51:27;94667.06;;;21.38;100.00
28626;BME280;18905;42.668;23.364;2023-06-10T02:53:52;94672.53;;;21.59;100.00
28626;BME280;18905;42.668;23.364;2023-06-10T02:56:18;94672.06;;;21.88;100.00
28626;BME280;18905;42.668;23.364;2023-06-10T02:58:44;94651.97;;;21.98;100.00
28626;BME280;18905;42.668;23.364;2023-06-10T03:01:09;94666.09;;;22.07;100.00
28626;BME280;18905;42.668;23.364;2023-06-10T03:03:35;94651.41;;;21.35;100.00
28626;BME280;18905;42.668;23.364;2023-06-10T03:06:02;94669.81;;;21.34;100.00
28626;BME280;18905;42.668;23.364;2023-06-10T03:08:28;94673.78;;;20.98;100.00
28626;BME280;18905;42.668;23.364;2023-06-10T03:10:54;94664.34;;;20.78;100.00
28626;BME280;18905;42.668;23.364;2023-06-10T03:13:19;94678.03;;;20.46;100.00
28626;BME280;18905;42.668;23.364;2023-06-10T03:15:45;94671.00;;;21.37;100.00
28626;BME280;18905;42.668;23.364;2023-06-10T03:18:11;94667.81;;;21.56;100.00
28626;BME280;18905;42.668;23.364;2023-06-10T03:20:37;94670.97;;;21.58;100.00
28626;BME280;18905;42.668;23.364;2023-06-10T03:23:04;94669.81;;;21.41;100.00
28626;BME280;18905;42.668;23.364;2023-06-10T03:25:31;94685.53;;;20.92;100.00
28626;BME280;18905;42.668;23.364;2023-06-10T03:27:57;94695.31;;;20.61;100.00
28626;BME280;18905;42.668;23.364;2023-06-10T03:30:22;94694.53;;;20.64;100.00
28626;BME280;18905;42.668;23.364;2023-06-10T03:32:48;94706.69;;;20.77;100.00
28626;BME280;18905;42.668;23.364;2023-06-10T03:35:14;94699.59;;;21.53;100.00
28626;BME280;18905;42.668;23.364;2023-06-10T03:37:40;94702.38;;;21.39;100.00
28626;BME280;18905;42.668;23.364;2023-06-10T03:40:06;94694.53;;;21.45;100.00
28626;BME280;18905;42.668;23.364;2023-06-10T03:42:32;94696.44;;;21.79;100.00
28626;BME280;18905;42.668;23.364;2023-06-10T03:44:58;94695.22;;;21.87;100.00
28626;BME280;18905;42.668;23.364;2023-06-10T03:47:23;94696.81;;;21.85;100.00
28626;BME280;18905;42.668;23.364;2023-06-10T03:49:48;94698.81;;;21.60;100.00
28626;BME280;18905;42.668;23.364;2023-06-10T03:52:14;94714.53;;;21.42;100.00
28626;BME280;18905;42.668;23.364;2023-06-10T03:54:39;94710.66;;;21.11;100.00
28626;BME280;18905;42.668;23.364;2023-06-10T03:57:04;94700.44;;;20.87;100.00
28626;BME280;18905;42.668;23.364;2023-06-10T03:59:31;94700.44;;;21.29;100.00
28626;BME280;18905;42.668;23.364;2023-06-10T04:01:56;94696.13;;;21.04;100.00
28626;BME280;18905;42.668;23.364;2023-06-10T04:04:23;94708.56;;;20.34;100.00
28626;BME280;18905;42.668;23.364;2023-06-10T04:06:48;94699.28;;;21.02;100.00
28626;BME280;18905;42.668;23.364;2023-06-10T04:09:14;94710.16;;;20.46;100.00
28626;BME280;18905;42.668;23.364;2023-06-10T04:11:41;94715.34;;;21.07;100.00
28626;BME280;18905;42.668;23.364;2023-06-10T04:14:07;94685.94;;;20.94;100.00
28626;BME280;18905;42.668;23.364;2023-06-10T04:16:33;94692.97;;;21.37;100.00
28626;BME280;18905;42.668;23.364;2023-06-10T04:18:59;94710.66;;;21.08;100.00
28626;BME280;18905;42.668;23.364;2023-06-10T04:21:26;94708.25;;;21.45;100.00
28626;BME280;18905;42.668;23.364;2023-06-10T04:23:51;94699.66;;;21.22;100.00
28626;BME280;18905;42.668;23.364;2023-06-10T04:26:17;94703.97;;;21.19;100.00
28626;BME280;18905;42.668;23.364;2023-06-10T04:28:43;94707.91;;;20.97;100.00
28626;BME280;18905;42.668;23.364;2023-06-10T04:31:08;94714.16;;;21.33;100.00
28626;BME280;18905;42.668;23.364;2023-06-10T04:33:35;94705.13;;;21.46;100.00
28626;BME280;18905;42.668;23.364;2023-06-10T04:36:00;94709.84;;;21.28;100.00
28626;BME280;18905;42.668;23.364;2023-06-10T04:38:26;94726.31;;;21.32;100.00
28626;BME280;18905;42.668;23.364;2023-06-10T04:40:51;94718.44;;;20.56;100.00
28626;BME280;18905;42.668;23.364;2023-06-10T04:43:17;94707.00;;;20.37;100.00
28626;BME280;18905;42.668;23.364;2023-06-10T04:45:42;94704.53;;;20.07;100.00
28626;BME280;18905;42.668;23.364;2023-06-10T04:48:11;94707.75;;;20.16;100.00
28626;BME280;18905;42.668;23.364;2023-06-10T04:50:37;94715.63;;;20.28;100.00
28626;BME280;18905;42.668;23.364;2023-06-10T04:53:02;94703.31;;;19.91;100.00
28626;BME280;18905;42.668;23.364;2023-06-10T04:55:28;94704.63;;;20.21;100.00
28626;BME280;18905;42.668;23.364;2023-06-10T04:57:54;94692.97;;;20.77;100.00
28626;BME280;18905;42.668;23.364;2023-06-10T05:00:19;94703.56;;;21.31;100.00
28626;BME280;18905;42.668;23.364;2023-06-10T05:02:45;94699.97;;;21.80;100.00
28626;BME280;18905;42.668;23.364;2023-06-10T05:05:15;94668.19;;;21.75;100.00
28626;BME280;18905;42.668;23.364;2023-06-10T05:07:40;94688.81;;;22.18;100.00
28626;BME280;18905;42.668;23.364;2023-06-10T05:10:06;94699.69;;;22.43;100.00
28626;BME280;18905;42.668;23.364;2023-06-10T05:12:32;94692.69;;;22.28;100.00
28626;BME280;18905;42.668;23.364;2023-06-10T05:14:57;94702.91;;;22.24;100.00
28626;BME280;18905;42.668;23.364;2023-06-10T05:17:22;94686.19;;;21.94;100.00
28626;BME280;18905;42.668;23.364;2023-06-10T05:19:48;94688.94;;;21.94;100.00
28626;BME280;18905;42.668;23.364;2023-06-10T05:22:13;94697.63;;;21.64;100.00
28626;BME280;18905;42.668;23.364;2023-06-10T05:24:41;94695.31;;;21.38;100.00
28626;BME280;18905;42.668;23.364;2023-06-10T05:27:06;94708.66;;;21.33;100.00
28626;BME280;18905;42.668;23.364;2023-06-10T05:29:32;94711.78;;;21.31;100.00
28626;BME280;18905;42.668;23.364;2023-06-10T05:31:58;94699.28;;;21.23;100.00
28626;BME280;18905;42.668;23.364;2023-06-10T05:34:28;94694.94;;;21.08;100.00
28626;BME280;18905;42.668;23.364;2023-06-10T05:36:53;94703.22;;;20.98;100.00
28626;BME280;18905;42.668;23.364;2023-06-10T05:39:18;94700.75;;;20.47;100.00
28626;BME280;18905;42.668;23.364;2023-06-10T05:41:44;94709.84;;;20.86;100.00
28626;BME280;18905;42.668;23.364;2023-06-10T05:44:09;94689.03;;;20.81;100.00
28626;BME280;18905;42.668;23.364;2023-06-10T05:46:35;94699.25;;;20.92;100.00
28626;BME280;18905;42.668;23.364;2023-06-10T05:49:00;94720.06;;;20.93;100.00
28626;BME280;18905;42.668;23.364;2023-06-10T05:51:26;94699.28;;;20.95;100.00
28626;BME280;18905;42.668;23.364;2023-06-10T05:53:52;94712.91;;;20.42;100.00
28626;BME280;18905;42.668;23.364;2023-06-10T05:56:17;94720.84;;;20.93;100.00
28626;BME280;18905;42.668;23.364;2023-06-10T05:58:43;94723.06;;;20.31;100.00
28626;BME280;18905;42.668;23.364;2023-06-10T06:01:08;94721.13;;;20.42;100.00
28626;BME280;18905;42.668;23.364;2023-06-10T06:03:34;94734.91;;;20.84;100.00
28626;BME280;18905;42.668;23.364;2023-06-10T06:05:59;94733.38;;;21.05;100.00
28626;BME280;18905;42.668;23.364;2023-06-10T06:08:25;94731.44;;;21.23;100.00
28626;BME280;18905;42.668;23.364;2023-06-10T06:10:50;94716.88;;;20.76;100.00
28626;BME280;18905;42.668;23.364;2023-06-10T06:13:15;94721.25;;;21.09;100.00
28626;BME280;18905;42.668;23.364;2023-06-10T06:15:41;94717.31;;;21.35;100.00
28626;BME280;18905;42.668;23.364;2023-06-10T06:18:06;94718.88;;;21.08;100.00
28626;BME280;18905;42.668;23.364;2023-06-10T06:20:32;94721.22;;;21.30;100.00
28626;BME280;18905;42.668;23.364;2023-06-10T06:22:57;94718.84;;;21.29;100.00
28626;BME280;18905;42.668;23.364;2023-06-10T06:25:22;94718.09;;;21.25;100.00
28626;BME280;18905;42.668;23.364;2023-06-10T06:27:48;94693.78;;;20.99;100.00
28626;BME280;18905;42.668;23.364;2023-06-10T06:30:13;94716.13;;;21.15;100.00
28626;BME280;18905;42.668;23.364;2023-06-10T06:32:39;94712.59;;;21.39;100.00
28626;BME280;18905;42.668;23.364;2023-06-10T06:35:04;94719.28;;;21.27;100.00
28626;BME280;18905;42.668;23.364;2023-06-10T06:37:33;94718.81;;;20.76;100.00
28626;BME280;18905;42.668;23.364;2023-06-10T06:39:59;94731.28;;;20.31;100.00
28626;BME280;18905;42.668;23.364;2023-06-10T06:42:24;94716.47;;;20.85;100.00
28626;BME280;18905;42.668;23.364;2023-06-10T06:44:50;94691.03;;;20.92;100.00
28626;BME280;18905;42.668;23.364;2023-06-10T06:47:15;94710.25;;;21.06;100.00
28626;BME280;18905;42.668;23.364;2023-06-10T06:49:45;94721.63;;;21.22;100.00
28626;BME280;18905;42.668;23.364;2023-06-10T06:52:11;94712.22;;;21.19;100.00
28626;BME280;18905;42.668;23.364;2023-06-10T06:54:36;94693.00;;;21.19;100.00
28626;BME280;18905;42.668;23.364;2023-06-10T06:57:01;94708.69;;;21.12;100.00
28626;BME280;18905;42.668;23.364;2023-06-10T06:59:27;94707.13;;;21.07;100.00
28626;BME280;18905;42.668;23.364;2023-06-10T07:01:52;94712.19;;;21.40;100.00
28626;BME280;18905;42.668;23.364;2023-06-10T07:04:20;94702.78;;;20.78;100.00
28626;BME280;18905;42.668;23.364;2023-06-10T07:06:47;94684.00;;;21.12;100.00
28626;BME280;18905;42.668;23.364;2023-06-10T07:09:13;94691.00;;;20.88;100.00
28626;BME280;18905;42.668;23.364;2023-06-10T07:11:38;94705.88;;;21.47;100.00
28626;BME280;18905;42.668;23.364;2023-06-10T07:14:04;94685.47;;;21.62;100.00
28626;BME280;18905;42.668;23.364;2023-06-10T07:16:29;94689.06;;;22.45;100.00
28626;BME280;18905;42.668;23.364;2023-06-10T07:18:54;94665.63;;;22.23;100.00
28626;BME280;18905;42.668;23.364;2023-06-10T07:21:20;94674.41;;;22.69;100.00
28626;BME280;18905;42.668;23.364;2023-06-10T07:23:46;94671.44;;;22.97;100.00
28626;BME280;18905;42.668;23.364;2023-06-10T07:26:11;94664.28;;;22.55;100.00
28626;BME280;18905;42.668;23.364;2023-06-10T07:28:39;94675.22;;;23.13;100.00
28626;BME280;18905;42.668;23.364;2023-06-10T07:31:04;94679.94;;;23.60;100.00
28626;BME280;18905;42.668;23.364;2023-06-10T07:33:30;94683.53;;;24.24;100.00
28626;BME280;18905;42.668;23.364;2023-06-10T07:35:55;94660.47;;;24.11;100.00
28626;BME280;18905;42.668;23.364;2023-06-10T07:38:21;94680.50;;;24.75;100.00
28626;BME280;18905;42.668;23.364;2023-06-10T07:40:46;94670.94;;;24.80;100.00
28626;BME280;18905;42.668;23.364;2023-06-10T07:43:12;94676.78;;;24.85;100.00
28626;BME280;18905;42.668;23.364;2023-06-10T07:45:39;94679.59;;;23.92;100.00
28626;BME280;18905;42.668;23.364;2023-06-10T07:48:05;94676.34;;;23.23;100.00
28626;BME280;18905;42.668;23.364;2023-06-10T07:50:30;94689.41;;;23.56;100.00
28626;BME280;18905;42.668;23.364;2023-06-10T07:52:56;94680.28;;;23.99;100.00
28626;BME280;18905;42.668;23.364;2023-06-10T07:55:21;94681.66;;;24.18;100.00
28626;BME280;18905;42.668;23.364;2023-06-10T07:57:47;94683.47;;;23.98;100.00
28626;BME280;18905;42.668;23.364;2023-06-10T08:00:12;94687.53;;;24.20;100.00
28626;BME280;18905;42.668;23.364;2023-06-10T08:02:38;94670.91;;;24.53;100.00
28626;BME280;18905;42.668;23.364;2023-06-10T08:05:04;94677.72;;;25.25;100.00
28626;BME280;18905;42.668;23.364;2023-06-10T08:07:29;94680.16;;;25.46;97.41
28626;BME280;18905;42.668;23.364;2023-06-10T08:09:56;94683.72;;;25.66;100.00
28626;BME280;18905;42.668;23.364;2023-06-10T08:12:21;94666.84;;;26.22;93.04
28626;BME280;18905;42.668;23.364;2023-06-10T08:14:46;94678.69;;;26.03;80.08
28626;BME280;18905;42.668;23.364;2023-06-10T08:17:12;94663.94;;;26.10;80.41
28626;BME280;18905;42.668;23.364;2023-06-10T08:19:37;94660.13;;;26.59;81.47
28626;BME280;18905;42.668;23.364;2023-06-10T08:22:03;94661.91;;;26.85;78.33
28626;BME280;18905;42.668;23.364;2023-06-10T08:24:28;94654.84;;;27.32;77.86
28626;BME280;18905;42.668;23.364;2023-06-10T08:26:54;94652.78;;;27.20;78.17
28626;BME280;18905;42.668;23.364;2023-06-10T08:29:21;94651.69;;;27.62;67.08
28626;BME280;18905;42.668;23.364;2023-06-10T08:31:46;94650.03;;;26.33;67.90
28626;BME280;18905;42.668;23.364;2023-06-10T08:34:12;94645.34;;;26.10;71.55
28626;BME280;18905;42.668;23.364;2023-06-10T08:36:37;94639.84;;;25.68;70.53
28626;BME280;18905;42.668;23.364;2023-06-10T08:39:03;94650.94;;;26.07;70.45
28626;BME280;18905;42.668;23.364;2023-06-10T08:41:30;94643.91;;;26.93;65.59
28626;BME280;18905;42.668;23.364;2023-06-10T08:44:08;94639.84;;;26.97;69.41
28626;BME280;18905;42.668;23.364;2023-06-10T08:46:36;94638.81;;;26.91;67.37
28626;BME280;18905;42.668;23.364;2023-06-10T08:49:03;94637.16;;;27.42;67.30
28626;BME280;18905;42.668;23.364;2023-06-10T08:51:32;94632.81;;;27.57;61.11
28626;BME280;18905;42.668;23.364;2023-06-10T08:54:15;94637.78;;;27.78;60.56
28626;BME280;18905;42.668;23.364;2023-06-10T08:56:44;94634.47;;;28.40;66.93
28626;BME280;18905;42.668;23.364;2023-06-10T08:59:12;94630.84;;;28.93;67.67
28626;BME280;18905;42.668;23.364;2023-06-10T09:01:38;94632.53;;;29.16;57.22
28626;BME280;18905;42.668;23.364;2023-06-10T09:04:04;94630.31;;;28.98;59.97
28626;BME280;18905;42.668;23.364;2023-06-10T09:06:32;94621.72;;;28.67;56.14
28626;BME280;18905;42.668;23.364;2023-06-10T09:08:58;94626.06;;;27.58;58.72
28626;BME280;18905;42.668;23.364;2023-06-10T09:11:24;94627.81;;;26.88;59.71
28626;BME280;18905;42.668;23.364;2023-06-10T09:13:50;94619.09;;;27.21;61.21
28626;BME280;18905;42.668;23.364;2023-06-10T09:16:16;94606.94;;;26.67;62.09
28626;BME280;18905;42.668;23.364;2023-06-10T09:18:42;94619.41;;;26.75;61.81
28626;BME280;18905;42.668;23.364;2023-06-10T09:21:07;94620.72;;;26.16;63.60
28626;BME280;18905;42.668;23.364;2023-06-10T09:23:33;94602.34;;;25.86;66.20
28626;BME280;18905;42.668;23.364;2023-06-10T09:25:59;94620.25;;;26.56;62.99
28626;BME280;18905;42.668;23.364;2023-06-10T09:28:24;94604.75;;;26.59;63.25
28626;BME280;18905;42.668;23.364;2023-06-10T09:31:01;94607.72;;;27.00;62.51
28626;BME280;18905;42.668;23.364;2023-06-10T09:33:27;94606.88;;;27.03;63.66
28626;BME280;18905;42.668;23.364;2023-06-10T09:35:53;94612.28;;;28.11;60.73
28626;BME280;18905;42.668;23.364;2023-06-10T09:38:21;94610.50;;;28.84;57.13
28626;BME280;18905;42.668;23.364;2023-06-10T09:40:51;94614.84;;;28.60;55.47
28626;BME280;18905;42.668;23.364;2023-06-10T09:43:18;94605.16;;;28.52;57.10
28626;BME280;18905;42.668;23.364;2023-06-10T09:45:43;94599.50;;;28.01;58.43
28626;BME280;18905;42.668;23.364;2023-06-10T09:48:09;94601.03;;;27.90;57.78
28626;BME280;18905;42.668;23.364;2023-06-10T09:50:41;94600.91;;;27.93;57.18
28626;BME280;18905;42.668;23.364;2023-06-10T09:53:08;94600.88;;;28.22;57.33
28626;BME280;18905;42.668;23.364;2023-06-10T09:55:33;94595.22;;;28.38;54.72
28626;BME280;18905;42.668;23.364;2023-06-10T09:58:00;94598.38;;;28.90;52.62
28626;BME280;18905;42.668;23.364;2023-06-10T10:00:25;94590.16;;;28.74;54.30
28626;BME280;18905;42.668;23.364;2023-06-10T10:02:52;94590.28;;;29.08;51.52
28626;BME280;18905;42.668;23.364;2023-06-10T10:05:20;94588.84;;;28.00;55.29
28626;BME280;18905;42.668;23.364;2023-06-10T10:07:46;94577.75;;;27.27;58.50
28626;BME280;18905;42.668;23.364;2023-06-10T10:10:14;94587.47;;;26.71;58.52
28626;BME280;18905;42.668;23.364;2023-06-10T10:12:40;94583.31;;;27.11;56.05
28626;BME280;18905;42.668;23.364;2023-06-10T10:15:07;94574.84;;;26.70;55.88
28626;BME280;18905;42.668;23.364;2023-06-10T10:20:29;94568.78;;;26.75;57.88
28626;BME280;18905;42.668;23.364;2023-06-10T10:22:56;94554.06;;;26.62;59.64
28626;BME280;18905;42.668;23.364;2023-06-10T10:25:30;94566.47;;;25.63;66.27
28626;BME280;18905;42.668;23.364;2023-06-10T10:28:02;94563.19;;;26.43;62.33
28626;BME280;18905;42.668;23.364;2023-06-10T10:30:30;94575.72;;;27.43;59.36
28626;BME280;18905;42.668;23.364;2023-06-10T10:33:09;94557.72;;;27.80;55.58
28626;BME280;18905;42.668;23.364;2023-06-10T10:35:37;94567.16;;;27.82;54.61
28626;BME280;18905;42.668;23.364;2023-06-10T10:38:04;94561.16;;;27.55;53.19
28626;BME280;18905;42.668;23.364;2023-06-10T10:40:30;94567.94;;;26.42;60.95
28626;BME280;18905;42.668;23.364;2023-06-10T10:42:58;94552.13;;;26.43;61.15
28626;BME280;18905;42.668;23.364;2023-06-10T10:45:27;94553.53;;;26.51;65.22
28626;BME280;18905;42.668;23.364;2023-06-10T10:47:53;94545.31;;;26.95;62.19
28626;BME280;18905;42.668;23.364;2023-06-10T10:50:22;94554.91;;;26.59;64.45
28626;BME280;18905;42.668;23.364;2023-06-10T10:55:20;94543.03;;;26.26;64.86
28626;BME280;18905;42.668;23.364;2023-06-10T10:58:05;94540.16;;;27.10;61.94
28626;BME280;18905;42.668;23.364;2023-06-10T11:00:44;94548.00;;;27.43;57.73
28626;BME280;18905;42.668;23.364;2023-06-10T11:03:13;94544.34;;;27.02;61.90
28626;BME280;18905;42.668;23.364;2023-06-10T11:05:42;94537.31;;;27.29;59.47
28626;BME280;18905;42.668;23.364;2023-06-10T11:08:10;94551.19;;;27.13;58.37
28626;BME280;18905;42.668;23.364;2023-06-10T11:10:39;94532.22;;;27.12;58.67
28626;BME280;18905;42.668;23.364;2023-06-10T11:13:14;94526.22;;;27.58;59.54
28626;BME280;18905;42.668;23.364;2023-06-10T11:15:44;94508.38;;;27.71;57.86
28626;BME280;18905;42.668;23.364;2023-06-10T11:21:05;94514.94;;;27.36;58.91
28626;BME280;18905;42.668;23.364;2023-06-10T11:23:37;94508.72;;;27.61;55.51
28626;BME280;18905;42.668;23.364;2023-06-10T11:32:04;94493.78;;;26.98;60.07
28626;BME280;18905;42.668;23.364;2023-06-10T11:34:07;94497.34;;;26.50;61.60
28626;BME280;18905;42.668;23.364;2023-06-10T11:36:36;94493.13;;;26.78;60.17
28626;BME280;18905;42.668;23.364;2023-06-10T11:39:04;94491.06;;;27.10;60.22
28626;BME280;18905;42.668;23.364;2023-06-10T11:41:30;94486.53;;;26.24;64.29
28626;BME280;18905;42.668;23.364;2023-06-10T11:44:01;94475.41;;;25.92;65.60
28626;BME280;18905;42.668;23.364;2023-06-10T11:46:27;94484.88;;;26.10;65.63
28626;BME280;18905;42.668;23.364;2023-06-10T11:48:57;94482.25;;;25.68;66.56
28626;BME280;18905;42.668;23.364;2023-06-10T11:51:27;94495.56;;;25.92;64.48
28626;BME280;18905;42.668;23.364;2023-06-10T11:53:54;94483.34;;;25.90;64.36
28626;BME280;18905;42.668;23.364;2023-06-10T11:56:21;94478.03;;;25.99;69.37
28626;BME280;18905;42.668;23.364;2023-06-10T11:58:52;94482.97;;;26.07;66.19
28626;BME280;18905;42.668;23.364;2023-06-10T12:01:22;94480.31;;;26.52;65.68
28626;BME280;18905;42.668;23.364;2023-06-10T12:03:56;94482.97;;;27.03;61.38
28626;BME280;18905;42.668;23.364;2023-06-10T12:06:22;94477.56;;;26.84;64.77
28626;BME280;18905;42.668;23.364;2023-06-10T12:08:47;94480.84;;;27.52;57.37
28626;BME280;18905;42.668;23.364;2023-06-10T12:11:13;94470.47;;;27.40;58.63
28626;BME280;18905;42.668;23.364;2023-06-10T12:13:46;94474.97;;;27.21;54.37
28626;BME280;18905;42.668;23.364;2023-06-10T12:16:15;94470.69;;;26.88;52.89
28626;BME280;18905;42.668;23.364;2023-06-10T12:18:43;94477.56;;;26.84;52.45
28626;BME280;18905;42.668;23.364;2023-06-10T12:21:20;94480.91;;;26.91;50.27
28626;BME280;18905;42.668;23.364;2023-06-10T12:24:05;94479.41;;;27.03;53.60
28626;BME280;18905;42.668;23.364;2023-06-10T12:26:42;94457.09;;;27.51;51.34
28626;BME280;18905;42.668;23.364;2023-06-10T12:29:27;94462.03;;;27.31;50.01
28626;BME280;18905;42.668;23.364;2023-06-10T12:31:58;94470.25;;;26.90;51.29
28626;BME280;18905;42.668;23.364;2023-06-10T12:34:28;94455.97;;;26.91;53.23
28626;BME280;18905;42.668;23.364;2023-06-10T12:36:54;94468.66;;;27.05;55.18
28626;BME280;18905;42.668;23.364;2023-06-10T12:39:19;94449.75;;;27.16;50.52
28626;BME280;18905;42.668;23.364;2023-06-10T12:41:48;94434.78;;;26.85;48.52
28626;BME280;18905;42.668;23.364;2023-06-10T12:44:15;94450.59;;;27.00;51.17
28626;BME280;18905;42.668;23.364;2023-06-10T12:46:40;94446.91;;;27.19;54.54
28626;BME280;18905;42.668;23.364;2023-06-10T12:49:05;94455.03;;;27.67;51.11
28626;BME280;18905;42.668;23.364;2023-06-10T12:51:31;94447.53;;;27.93;51.48
28626;BME280;18905;42.668;23.364;2023-06-10T12:53:56;94436.94;;;27.75;49.38
28626;BME280;18905;42.668;23.364;2023-06-10T12:56:22;94450.78;;;27.63;51.92
28626;BME280;18905;42.668;23.364;2023-06-10T12:58:47;94458.13;;;27.57;50.29